Time;durP1;ratioP1;P1;durP2;ratioP2;P2;SDS_P1;SDS_P2;PMS_P1;PMS_P2;Temp;Humidity;BMP_temperature;BMP_pressure;BME280_temperature;BME280_humidity;BME280_pressure;Samples;Min_cycle;Max_cycle;Signal;HPM_P1;HPM_P2
2023/08/02 00:00:50;;;;;;;2.33;1.05;;;22.60;95.40;;;;;;5033766;28;20050;-64
2023/08/02 00:03:15;;;;;;;2.33;1.05;;;22.40;94.90;;;;;;5031378;28;20049;-64
2023/08/02 00:05:41;;;;;;;2.55;1.10;;;22.40;94.90;;;;;;5034620;28;20457;-64
2023/08/02 00:08:07;;;;;;;2.53;1.10;;;22.30;94.90;;;;;;5032869;28;20037;-69
2023/08/02 00:10:36;;;;;;;2.22;1.20;;;22.30;93.80;;;;;;5019298;28;20073;-67
2023/08/02 00:13:02;;;;;;;2.75;1.30;;;22.20;93.90;;;;;;5015093;28;20045;-68
2023/08/02 00:15:28;;;;;;;4.57;1.50;;;22.50;93.80;;;;;;5028861;28;20497;-67
2023/08/02 00:17:54;;;;;;;2.38;1.10;;;22.40;95.20;;;;;;5033394;28;20372;-69
2023/08/02 00:20:19;;;;;;;3.20;1.10;;;22.50;93.80;;;;;;5033700;28;20042;-64
2023/08/02 00:22:45;;;;;;;3.28;0.95;;;22.50;93.80;;;;;;5034654;28;20049;-66
2023/08/02 00:25:11;;;;;;;2.22;1.10;;;22.40;93.80;;;;;;5032942;28;20056;-68
2023/08/02 00:27:36;;;;;;;3.50;1.10;;;22.40;93.80;;;;;;5018315;28;20117;-64
2023/08/02 00:30:03;;;;;;;2.53;0.95;;;22.30;93.80;;;;;;5031919;28;20060;-68
2023/08/02 00:32:28;;;;;;;1.38;1.00;;;22.50;93.80;;;;;;5032859;28;20064;-68
2023/08/02 00:34:54;;;;;;;1.80;0.90;;;22.60;93.80;;;;;;5032057;28;20041;-68
2023/08/02 00:37:22;;;;;;;3.08;1.30;;;22.40;95.30;;;;;;5033654;28;20053;-66
2023/08/02 00:39:52;;;;;;;1.98;1.13;;;22.50;95.30;;;;;;5027517;28;20503;-68
2023/08/02 00:42:19;;;;;;;2.38;0.85;;;22.40;94.00;;;;;;5032906;28;20045;-69
2023/08/02 00:44:45;;;;;;;3.60;1.15;;;22.30;93.90;;;;;;5000204;28;20046;-69
2023/08/02 00:47:10;;;;;;;3.40;1.20;;;22.30;95.00;;;;;;5013200;28;20550;-69
2023/08/02 00:49:36;;;;;;;1.70;0.85;;;22.40;93.80;;;;;;5028269;28;20091;-68
2023/08/02 00:52:02;;;;;;;3.22;1.13;;;22.20;93.60;;;;;;5048746;28;20116;-64
2023/08/02 00:54:28;;;;;;;3.38;1.30;;;22.20;94.80;;;;;;5025751;28;20058;-68
2023/08/02 00:56:54;;;;;;;3.45;1.08;;;22.40;93.80;;;;;;5047967;28;20041;-70
2023/08/02 00:59:20;;;;;;;2.42;1.00;;;22.40;95.00;;;;;;5032830;28;20045;-67
2023/08/02 01:01:47;;;;;;;2.33;1.05;;;22.50;94.90;;;;;;5027784;28;20052;-72
2023/08/02 01:04:13;;;;;;;2.65;1.20;;;22.40;93.90;;;;;;5029464;28;20049;-70
2023/08/02 01:06:52;;;;;;;2.40;1.00;;;22.30;94.90;;;;;;5033853;28;20095;-65
2023/08/02 01:09:43;;;;;;;2.53;1.20;;;22.40;93.30;;;;;;5046059;28;20037;-69
2023/08/02 01:12:12;;;;;;;4.50;1.10;;;22.40;93.30;;;;;;5049035;28;20361;-68
2023/08/02 01:14:40;;;;;;;4.60;1.08;;;22.90;95.50;;;;;;5028665;28;20038;-67
2023/08/02 01:17:06;;;;;;;2.35;1.02;;;22.40;95.10;;;;;;5014329;28;20057;-68
2023/08/02 01:19:32;;;;;;;2.22;0.90;;;22.50;95.20;;;;;;5024068;28;20047;-66
2023/08/02 01:21:58;;;;;;;4.03;1.30;;;22.50;93.90;;;;;;5026018;28;20398;-65
2023/08/02 01:24:32;;;;;;;2.03;0.98;;;22.30;93.70;;;;;;5033514;28;20142;-70
2023/08/02 01:26:59;;;;;;;2.25;0.90;;;22.30;95.00;;;;;;5016658;28;20049;-68
2023/08/02 01:29:25;;;;;;;3.53;1.08;;;22.40;93.90;;;;;;5012503;28;20399;-68
2023/08/02 01:31:50;;;;;;;2.10;0.88;;;22.60;93.90;;;;;;5029611;28;20129;-67
2023/08/02 01:34:16;;;;;;;3.05;1.17;;;22.50;93.80;;;;;;5023302;28;20041;-65
2023/08/02 01:36:42;;;;;;;3.50;1.00;;;22.30;95.00;;;;;;5022632;28;20376;-64
2023/08/02 01:39:08;;;;;;;3.20;1.20;;;22.30;94.90;;;;;;5028399;28;20041;-67
2023/08/02 01:41:34;;;;;;;2.10;1.00;;;22.30;94.80;;;;;;5032238;28;20056;-64
2023/08/02 01:43:59;;;;;;;2.42;1.13;;;22.40;93.80;;;;;;5032895;28;20483;-65
2023/08/02 01:46:25;;;;;;;2.28;1.02;;;22.40;93.80;;;;;;5031620;28;20045;-63
2023/08/02 01:48:51;;;;;;;2.13;0.95;;;22.50;93.80;;;;;;5020874;28;20057;-64
2023/08/02 01:51:17;;;;;;;2.10;1.00;;;22.40;95.20;;;;;;5024727;28;20107;-65
2023/08/02 01:53:43;;;;;;;3.00;1.17;;;22.40;93.80;;;;;;5032204;28;20444;-64
2023/08/02 01:56:08;;;;;;;2.88;1.13;;;22.40;95.30;;;;;;5063579;28;20045;-64
2023/08/02 01:58:34;;;;;;;2.67;1.02;;;22.30;93.80;;;;;;5013515;28;20052;-63
2023/08/02 02:01:00;;;;;;;2.63;1.10;;;22.40;94.70;;;;;;5018494;28;20442;-63
2023/08/02 02:03:26;;;;;;;4.32;1.50;;;22.20;93.70;;;;;;5032927;28;20606;-64
2023/08/02 02:05:53;;;;;;;3.75;1.13;;;22.50;93.80;;;;;;5032656;28;20124;-63
2023/08/02 02:08:19;;;;;;;5.25;1.38;;;22.60;95.40;;;;;;5021582;28;20054;-61
2023/08/02 02:10:49;;;;;;;4.07;1.38;;;22.20;94.80;;;;;;5029497;28;20053;-61
2023/08/02 02:13:19;;;;;;;2.95;1.30;;;22.30;93.90;;;;;;5030885;28;20057;-61
2023/08/02 02:15:45;;;;;;;3.65;1.30;;;22.30;93.20;;;;;;5029874;28;20403;-62
2023/08/02 02:18:11;;;;;;;4.25;1.30;;;22.20;94.90;;;;;;5027642;28;20052;-65
2023/08/02 02:20:37;;;;;;;4.93;1.48;;;22.30;93.70;;;;;;5029170;28;20073;-70
2023/08/02 02:23:02;;;;;;;4.20;1.55;;;22.40;93.70;;;;;;5031057;28;20115;-67
2023/08/02 02:25:28;;;;;;;4.30;1.38;;;22.40;94.90;;;;;;5025442;28;20041;-65
2023/08/02 02:27:54;;;;;;;2.90;1.40;;;22.50;93.90;;;;;;5025504;28;20077;-70
2023/08/02 02:30:20;;;;;;;3.88;1.40;;;22.30;95.20;;;;;;5011351;28;20041;-70
2023/08/02 02:32:45;;;;;;;3.50;1.23;;;22.10;93.90;;;;;;5026821;28;20526;-67
2023/08/02 02:35:15;;;;;;;4.32;1.38;;;22.40;95.00;;;;;;5031083;28;20456;-67
2023/08/02 02:37:41;;;;;;;4.50;1.50;;;22.40;95.20;;;;;;5029941;28;20053;-66
2023/08/02 02:40:07;;;;;;;3.05;1.48;;;22.20;94.80;;;;;;5064079;28;20147;-70
2023/08/02 02:42:33;;;;;;;5.78;1.80;;;22.30;94.90;;;;;;5026642;28;20443;-69
2023/08/02 02:44:59;;;;;;;5.25;1.65;;;;;;;;;;5029250;28;20125;-61
2023/08/02 02:47:25;;;;;;;5.15;1.50;;;22.20;94.80;;;;;;5028000;28;20127;-68
2023/08/02 02:49:51;;;;;;;4.40;1.73;;;22.40;93.70;;;;;;5030184;28;20046;-70
2023/08/02 02:52:17;;;;;;;3.03;1.42;;;22.40;93.70;;;;;;5028730;28;20118;-72
2023/08/02 02:54:42;;;;;;;5.43;1.50;;;22.30;93.70;;;;;;5014434;28;20053;-70
2023/08/02 02:57:09;;;;;;;4.22;1.80;;;22.30;94.80;;;;;;5030453;28;20132;-68
2023/08/02 02:59:35;;;;;;;3.35;1.60;;;22.40;93.80;;;;;;5005609;28;20050;-61
2023/08/02 03:02:01;;;;;;;2.83;1.60;;;22.30;95.10;;;;;;5005389;28;20053;-68
2023/08/02 03:04:27;;;;;;;4.20;1.52;;;22.40;94.80;;;;;;5029629;28;20124;-66
2023/08/02 03:06:52;;;;;;;5.82;1.58;;;22.30;93.70;;;;;;5016669;28;20046;-64
2023/08/02 03:09:18;;;;;;;4.93;1.70;;;22.10;94.80;;;;;;5024105;28;20424;-67
2023/08/02 03:11:45;;;;;;;4.75;1.40;;;22.10;93.60;;;;;;5034029;28;20495;-72
2023/08/02 03:14:11;;;;;;;2.72;1.50;;;22.10;93.70;;;;;;5049716;28;20033;-71
2023/08/02 03:16:36;;;;;;;4.25;1.65;;;22.20;95.10;;;;;;5034402;28;20450;-70
2023/08/02 03:19:03;;;;;;;3.17;1.50;;;22.20;94.80;;;;;;5034846;28;20792;-72
2023/08/02 03:21:29;;;;;;;5.20;1.90;;;22.10;94.70;;;;;;5034167;28;20037;-65
2023/08/02 03:23:55;;;;;;;4.40;1.75;;;22.20;94.80;;;;;;5063592;28;20048;-71
2023/08/02 03:26:21;;;;;;;5.78;1.70;;;22.30;93.80;;;;;;5033661;28;20041;-70
2023/08/02 03:28:47;;;;;;;4.88;1.50;;;;;;;;;;5033008;28;20437;-62
2023/08/02 03:31:12;;;;;;;4.20;1.67;;;22.20;95.10;;;;;;5035674;28;20120;-62
2023/08/02 03:33:38;;;;;;;4.00;1.70;;;22.30;95.00;;;;;;5026609;28;20483;-67
2023/08/02 03:36:04;;;;;;;5.57;1.30;;;22.20;94.80;;;;;;5030020;28;20057;-71
2023/08/02 03:38:30;;;;;;;4.00;1.50;;;22.10;94.80;;;;;;5022289;28;20069;-71
2023/08/02 03:40:55;;;;;;;4.63;1.50;;;22.00;94.70;;;;;;5030680;28;20046;-67
2023/08/02 03:43:21;;;;;;;5.13;1.50;;;22.10;94.90;;;;;;5032603;28;20046;-70
2023/08/02 03:45:49;;;;;;;3.53;1.40;;;22.40;93.60;;;;;;5033438;28;20091;-69
2023/08/02 03:48:15;;;;;;;4.40;1.70;;;22.40;93.80;;;;;;5027303;28;20081;-72
2023/08/02 03:50:41;;;;;;;4.70;2.15;;;22.30;94.70;;;;;;5016744;28;20054;-70
2023/08/02 03:53:07;;;;;;;3.75;1.73;;;22.20;94.70;;;;;;5027210;28;20099;-68
2023/08/02 03:55:33;;;;;;;5.55;1.60;;;22.20;94.80;;;;;;5031942;28;20041;-73
2023/08/02 03:57:59;;;;;;;3.55;1.35;;;22.10;93.70;;;;;;5034558;28;20532;-69
2023/08/02 04:00:24;;;;;;;4.35;1.67;;;22.30;94.70;;;;;;5030752;28;20042;-61
2023/08/02 04:02:50;;;;;;;4.65;1.48;;;22.10;94.70;;;;;;5034330;28;20053;-64
2023/08/02 04:05:16;;;;;;;4.35;1.75;;;22.20;94.80;;;;;;5031950;28;20053;-69
2023/08/02 04:07:43;;;;;;;3.35;1.75;;;22.30;95.10;;;;;;5024419;28;20041;-70
2023/08/02 04:10:08;;;;;;;5.63;1.73;;;22.20;94.80;;;;;;4990313;28;20092;-72
2023/08/02 04:12:34;;;;;;;4.47;1.77;;;22.20;95.20;;;;;;5007680;28;20073;-67
2023/08/02 04:15:00;;;;;;;3.92;1.60;;;22.20;94.30;;;;;;5030849;28;20552;-70
2023/08/02 04:17:26;;;;;;;4.13;1.67;;;22.30;94.70;;;;;;5033298;28;20128;-67
2023/08/02 04:19:51;;;;;;;3.47;1.65;;;22.40;94.80;;;;;;5034673;28;20034;-66
2023/08/02 04:22:17;;;;;;;3.63;1.67;;;22.10;94.80;;;;;;5031795;28;20045;-64
2023/08/02 04:24:43;;;;;;;5.20;1.73;;;22.40;94.70;;;;;;5024959;28;20835;-65
2023/08/02 04:27:09;;;;;;;5.13;1.70;;;22.20;94.70;;;;;;5023369;28;20541;-68
2023/08/02 04:29:34;;;;;;;5.30;2.35;;;22.20;95.10;;;;;;5016681;28;20125;-69
2023/08/02 04:32:00;;;;;;;6.30;2.00;;;22.40;93.70;;;;;;5033285;28;20049;-67
2023/08/02 04:34:26;;;;;;;4.72;1.85;;;22.00;94.70;;;;;;5034505;28;20491;-68
2023/08/02 04:36:52;;;;;;;5.93;2.03;;;22.20;94.60;;;;;;5047096;28;20450;-66
2023/08/02 04:39:18;;;;;;;5.85;2.22;;;22.10;93.70;;;;;;5055683;28;20121;-68
2023/08/02 04:41:44;;;;;;;5.85;2.03;;;22.20;94.70;;;;;;5030160;28;20116;-65
2023/08/02 04:44:09;;;;;;;3.90;1.63;;;21.90;93.50;;;;;;5014522;28;20111;-65
2023/08/02 04:46:35;;;;;;;4.13;1.90;;;22.10;95.00;;;;;;5021923;28;20506;-66
2023/08/02 04:49:01;;;;;;;5.28;1.95;;;22.10;94.70;;;;;;5032993;28;20037;-66
2023/08/02 04:51:26;;;;;;;5.60;2.20;;;22.40;93.60;;;;;;5026297;28;20061;-63
2023/08/02 04:53:52;;;;;;;6.97;2.45;;;22.40;93.60;;;;;;5050088;28;20059;-66
2023/08/02 04:56:18;;;;;;;6.05;2.40;;;22.30;95.00;;;;;;5030158;28;20500;-62
2023/08/02 04:58:44;;;;;;;5.43;2.10;;;22.10;94.70;;;;;;5025126;28;20077;-65
2023/08/02 05:01:10;;;;;;;6.32;2.20;;;22.20;93.60;;;;;;5012674;28;20081;-65
2023/08/02 05:03:35;;;;;;;5.65;2.17;;;22.30;94.90;;;;;;5013873;28;20050;-65
2023/08/02 05:06:05;;;;;;;4.90;2.13;;;22.20;94.60;;;;;;5015843;28;20042;-67
2023/08/02 05:08:35;;;;;;;6.03;2.38;;;22.10;94.60;;;;;;5026610;28;20039;-64
2023/08/02 05:11:01;;;;;;;6.55;2.40;;;22.30;94.80;;;;;;5039333;28;20128;-64
2023/08/02 05:13:27;;;;;;;5.75;2.58;;;;;;;;;;5032159;28;20049;-65
2023/08/02 05:15:54;;;;;;;4.85;2.30;;;22.30;94.90;;;;;;5023970;28;20081;-63
2023/08/02 05:18:20;;;;;;;6.25;2.83;;;22.10;94.50;;;;;;5025872;28;20096;-64
2023/08/02 05:20:46;;;;;;;7.65;2.53;;;22.30;94.60;;;;;;5047517;28;20045;-63
2023/08/02 05:23:12;;;;;;;7.22;2.28;;;22.10;93.30;;;;;;5032006;28;20120;-65
2023/08/02 05:25:38;;;;;;;6.63;2.78;;;22.20;94.80;;;;;;5053549;28;20892;-65
2023/08/02 05:28:04;;;;;;;7.88;2.58;;;22.30;93.50;;;;;;5028385;28;20103;-67
2023/08/02 05:30:31;;;;;;;5.60;2.50;;;22.20;94.50;;;;;;5029366;28;20120;-66
2023/08/02 05:32:58;;;;;;;5.75;2.50;;;22.50;94.90;;;;;;5054430;28;20050;-65
2023/08/02 05:35:25;;;;;;;6.32;2.47;;;22.60;93.50;;;;;;5011990;28;20407;-63
2023/08/02 05:37:52;;;;;;;7.15;2.35;;;22.20;94.70;;;;;;5019684;28;20046;-67
2023/08/02 05:40:18;;;;;;;5.70;2.63;;;22.20;94.70;;;;;;5018126;28;20054;-64
2023/08/02 05:42:44;;;;;;;6.97;2.70;;;21.90;93.30;;;;;;5013253;28;20050;-63
2023/08/02 05:45:10;;;;;;;7.25;2.55;;;22.10;93.00;;;;;;5013482;28;20400;-64
2023/08/02 05:47:36;;;;;;;6.43;2.40;;;22.30;94.30;;;;;;5012014;28;20041;-63
2023/08/02 05:50:03;;;;;;;6.25;2.72;;;22.40;94.50;;;;;;5021014;28;20527;-64
2023/08/02 05:52:28;;;;;;;6.90;2.83;;;22.50;94.30;;;;;;5013190;28;20073;-62
2023/08/02 05:54:54;;;;;;;7.05;2.70;;;22.20;93.10;;;;;;5013261;28;20127;-66
2023/08/02 05:57:20;;;;;;;6.05;2.50;;;22.40;94.30;;;;;;5011121;28;20050;-64
2023/08/02 05:59:48;;;;;;;5.90;2.53;;;22.40;94.30;;;;;;5024611;28;20410;-63
2023/08/02 06:02:14;;;;;;;6.90;2.70;;;22.50;93.10;;;;;;5031853;28;20490;-63
2023/08/02 06:04:43;;;;;;;6.18;2.55;;;22.40;93.00;;;;;;5033521;28;20168;-71
2023/08/02 06:07:09;;;;;;;6.90;2.80;;;22.60;94.00;;;;;;5029911;28;20204;-65
2023/08/02 06:09:35;;;;;;;6.78;2.50;;;22.40;92.50;;;;;;5021941;28;20057;-66
2023/08/02 06:12:01;;;;;;;6.45;2.38;;;22.60;93.80;;;;;;5031663;28;20041;-68
2023/08/02 06:14:27;;;;;;;5.82;2.88;;;22.60;93.70;;;;;;5028701;28;20033;-70
2023/08/02 06:16:53;;;;;;;6.15;2.78;;;22.80;92.70;;;;;;5027080;28;20510;-67
2023/08/02 06:19:19;;;;;;;6.18;2.75;;;22.60;93.70;;;;;;5030297;28;20081;-70
2023/08/02 06:21:44;;;;;;;6.95;2.70;;;22.80;93.90;;;;;;5030922;28;20122;-70
2023/08/02 06:24:10;;;;;;;5.43;2.53;;;22.80;93.70;;;;;;5020073;28;20057;-65
2023/08/02 06:26:36;;;;;;;5.72;2.70;;;22.70;93.40;;;;;;5011184;28;20054;-64
2023/08/02 06:29:01;;;;;;;6.40;2.30;;;22.80;92.30;;;;;;5025707;28;20041;-64
2023/08/02 06:31:27;;;;;;;6.68;2.75;;;22.90;92.40;;;;;;5063020;28;20045;-65
2023/08/02 06:33:53;;;;;;;6.97;3.00;;;23.00;92.30;;;;;;5025154;28;20453;-69
2023/08/02 06:36:19;;;;;;;6.05;2.80;;;22.80;92.20;;;;;;5029758;28;20087;-67
2023/08/02 06:38:48;;;;;;;5.40;2.60;;;22.70;93.40;;;;;;5029261;28;20042;-64
2023/08/02 06:41:13;;;;;;;7.57;2.70;;;22.90;92.30;;;;;;5030838;28;20049;-64
2023/08/02 06:43:39;;;;;;;6.18;2.70;;;23.00;92.20;;;;;;5030355;28;20091;-65
2023/08/02 06:46:05;;;;;;;7.15;3.17;;;23.00;93.20;;;;;;5034109;28;20526;-63
2023/08/02 06:48:31;;;;;;;5.57;2.65;;;22.90;92.10;;;;;;5034996;28;20121;-64
2023/08/02 06:50:57;;;;;;;5.60;2.50;;;;;;;;;;5016649;28;20521;-65
2023/08/02 06:53:23;;;;;;;7.43;2.92;;;22.90;91.30;;;;;;5073897;28;20068;-62
2023/08/02 06:55:49;;;;;;;6.53;2.67;;;22.80;92.00;;;;;;5030480;28;20041;-63
2023/08/02 06:58:15;;;;;;;7.00;3.15;;;22.90;93.10;;;;;;5021426;28;20103;-64
2023/08/02 07:00:41;;;;;;;6.85;3.05;;;22.90;93.10;;;;;;5025480;28;20083;-64
2023/08/02 07:03:06;;;;;;;6.35;2.88;;;23.00;93.50;;;;;;5042582;28;20403;-71
2023/08/02 07:05:34;;;;;;;5.40;2.55;;;22.80;92.00;;;;;;5018557;28;20048;-69
2023/08/02 07:08:00;;;;;;;6.20;2.72;;;23.00;93.10;;;;;;5035644;28;20060;-70
2023/08/02 07:10:27;;;;;;;6.50;2.80;;;23.00;93.20;;;;;;5034342;28;20060;-67
2023/08/02 07:12:53;;;;;;;6.13;2.75;;;22.80;92.00;;;;;;5033867;28;20089;-73
2023/08/02 07:15:19;;;;;;;6.45;2.83;;;23.00;92.10;;;;;;5027291;28;20096;-68
2023/08/02 07:17:45;;;;;;;6.50;2.90;;;23.10;92.00;;;;;;5027893;28;20089;-70
2023/08/02 07:20:12;;;;;;;5.90;3.20;;;23.00;93.00;;;;;;5017724;28;20400;-73
2023/08/02 07:22:39;;;;;;;5.90;2.90;;;23.00;92.00;;;;;;5030986;28;20057;-73
2023/08/02 07:25:05;;;;;;;6.07;2.88;;;23.00;92.90;;;;;;5035383;28;20475;-72
2023/08/02 07:27:31;;;;;;;5.43;2.72;;;22.90;93.00;;;;;;5035402;28;20056;-66
2023/08/02 07:29:56;;;;;;;5.72;3.15;;;23.00;91.80;;;;;;5031231;28;20041;-69
2023/08/02 07:32:23;;;;;;;5.60;2.75;;;23.10;93.20;;;;;;5027031;28;20045;-69
2023/08/02 07:34:49;;;;;;;6.30;3.00;;;22.70;93.00;;;;;;5027006;28;20042;-70
2023/08/02 07:37:15;;;;;;;6.63;2.55;;;22.70;91.70;;;;;;5026406;28;20056;-67
2023/08/02 07:39:40;;;;;;;6.45;2.88;;;23.00;91.80;;;;;;5029517;28;20430;-72
2023/08/02 07:42:07;;;;;;;7.32;2.90;;;23.00;92.90;;;;;;5028246;28;20042;-73
2023/08/02 07:44:33;;;;;;;6.72;2.85;;;23.00;93.20;;;;;;5032353;28;20463;-69
2023/08/02 07:46:59;;;;;;;6.75;3.00;;;23.30;92.00;;;;;;5049220;28;20053;-67
2023/08/02 07:49:25;;;;;;;7.25;2.90;;;23.20;93.20;;;;;;5024328;28;20049;-72
2023/08/02 07:51:51;;;;;;;7.07;2.92;;;22.90;91.90;;;;;;5028588;28;20065;-69
2023/08/02 07:54:17;;;;;;;7.28;3.17;;;22.90;91.50;;;;;;5029568;28;20041;-65
2023/08/02 07:56:42;;;;;;;6.13;2.72;;;23.00;91.80;;;;;;5015947;28;20057;-62
2023/08/02 07:59:08;;;;;;;7.43;2.92;;;22.90;92.90;;;;;;5029238;28;20044;-65
2023/08/02 08:01:34;;;;;;;7.30;3.30;;;23.00;91.80;;;;;;5026065;28;20132;-64
2023/08/02 08:04:00;;;;;;;6.97;3.17;;;22.80;91.80;;;;;;5031816;28;20407;-72
2023/08/02 08:06:26;;;;;;;7.32;2.83;;;22.90;92.90;;;;;;5057787;28;20803;-68
2023/08/02 08:08:52;;;;;;;7.05;2.63;;;23.10;92.90;;;;;;5021678;28;20037;-64
2023/08/02 08:11:17;;;;;;;7.22;2.75;;;23.00;91.80;;;;;;5030845;28;20510;-63
2023/08/02 08:13:43;;;;;;;7.53;3.15;;;22.90;91.70;;;;;;5032482;28;20061;-69
2023/08/02 08:16:09;;;;;;;7.07;2.90;;;23.00;93.20;;;;;;5025282;28;20042;-66
2023/08/02 08:18:36;;;;;;;6.93;3.10;;;22.90;91.60;;;;;;5033107;28;20057;-68
2023/08/02 08:21:03;;;;;;;7.38;3.08;;;22.90;92.80;;;;;;5032293;28;20052;-65
2023/08/02 08:23:31;;;;;;;8.07;3.45;;;22.90;92.90;;;;;;5025114;28;20053;-69
2023/08/02 08:25:57;;;;;;;8.85;3.20;;;23.00;91.80;;;;;;5025150;28;20049;-65
2023/08/02 08:28:23;;;;;;;6.35;3.53;;;22.90;92.90;;;;;;5032551;28;20045;-67
2023/08/02 08:30:49;;;;;;;7.88;3.50;;;22.90;91.50;;;;;;5025967;28;20411;-66
2023/08/02 08:33:15;;;;;;;9.55;3.30;;;22.90;93.10;;;;;;5033256;28;20044;-67
2023/08/02 08:35:40;;;;;;;6.60;3.33;;;22.80;91.60;;;;;;5030868;28;20557;-72
2023/08/02 08:38:06;;;;;;;10.13;3.75;;;23.00;91.60;;;;;;5033635;28;20052;-66
2023/08/02 08:40:32;;;;;;;7.40;3.55;;;22.70;91.50;;;;;;5030428;28;20483;-67
2023/08/02 08:42:58;;;;;;;8.88;2.95;;;22.70;92.80;;;;;;5030637;28;20186;-73
2023/08/02 08:45:25;;;;;;;7.65;3.15;;;22.90;91.70;;;;;;5028912;28;20067;-63
2023/08/02 08:47:51;;;;;;;7.25;3.45;;;22.80;91.90;;;;;;5030637;28;20100;-66
2023/08/02 08:50:20;;;;;;;6.45;3.03;;;22.60;92.90;;;;;;5023336;28;20065;-70
2023/08/02 08:52:47;;;;;;;19.40;3.70;;;22.60;92.90;;;;;;5023288;28;20496;-70
2023/08/02 08:55:14;;;;;;;20.83;4.57;;;22.80;93.40;;;;;;5031990;28;20103;-67
2023/08/02 08:57:40;;;;;;;15.30;3.95;;;22.80;93.30;;;;;;5027682;28;20053;-62
2023/08/02 09:00:08;;;;;;;14.27;3.65;;;22.60;93.10;;;;;;5013891;28;20053;-62
2023/08/02 09:02:34;;;;;;;16.05;3.85;;;22.50;93.20;;;;;;5061081;28;20049;-72
2023/08/02 09:05:03;;;;;;;15.45;3.65;;;22.70;92.00;;;;;;5011179;28;20044;-63
2023/08/02 09:07:30;;;;;;;12.68;3.90;;;22.90;92.10;;;;;;5018517;28;20088;-63
2023/08/02 09:09:57;;;;;;;12.05;4.20;;;22.80;93.60;;;;;;5035861;28;20418;-70
2023/08/02 09:12:26;;;;;;;10.73;4.10;;;22.70;92.10;;;;;;5025610;28;20111;-64
2023/08/02 09:15:02;;;;;;;12.23;4.10;;;22.60;93.50;;;;;;5024843;28;20091;-68
2023/08/02 09:17:28;;;;;;;10.38;3.88;;;22.50;93.20;;;;;;4995799;28;20092;-63
2023/08/02 09:20:07;;;;;;;12.90;3.85;;;22.40;92.30;;;;;;4998715;28;20045;-63
2023/08/02 09:22:33;;;;;;;12.82;3.90;;;22.40;93.40;;;;;;5003628;28;20155;-64
2023/08/02 09:25:00;;;;;;;9.60;3.83;;;22.50;92.40;;;;;;5033509;28;20430;-71
2023/08/02 09:27:29;;;;;;;7.82;3.58;;;22.50;93.60;;;;;;5030912;28;20057;-64
2023/08/02 09:29:55;;;;;;;8.90;3.70;;;22.60;92.70;;;;;;5025968;28;20049;-62
2023/08/02 09:32:21;;;;;;;11.25;4.00;;;22.60;92.50;;;;;;5028232;28;20115;-62
2023/08/02 09:34:49;;;;;;;7.82;3.70;;;22.40;93.70;;;;;;5030812;28;20045;-63
2023/08/02 09:37:16;;;;;;;8.77;3.25;;;22.30;92.80;;;;;;5031737;28;20301;-61
2023/08/02 09:39:51;;;;;;;8.82;3.50;;;22.20;93.70;;;;;;5030475;28;20046;-65
2023/08/02 09:42:17;;;;;;;7.93;4.13;;;22.20;93.80;;;;;;5030887;28;20133;-65
2023/08/02 09:45:00;;;;;;;9.07;3.60;;;22.30;93.80;;;;;;5030303;28;20124;-62
2023/08/02 09:47:27;;;;;;;10.82;3.78;;;;;;;;;;5025579;28;20049;-64
2023/08/02 09:50:04;;;;;;;8.23;3.45;;;22.10;93.90;;;;;;5020498;28;20089;-64
2023/08/02 09:52:31;;;;;;;9.35;3.72;;;22.30;92.50;;;;;;5032026;28;20123;-69
2023/08/02 09:54:57;;;;;;;7.70;3.42;;;22.30;94.20;;;;;;5032447;28;20041;-60
2023/08/02 09:57:25;;;;;;;8.88;3.55;;;22.20;94.30;;;;;;5021541;28;20100;-62
2023/08/02 09:59:53;;;;;;;10.23;3.90;;;22.20;93.20;;;;;;5031925;28;20475;-63
2023/08/02 10:02:21;;;;;;;7.07;3.47;;;22.30;94.50;;;;;;5026380;28;20076;-63
2023/08/02 10:04:48;;;;;;;7.88;3.58;;;22.40;94.50;;;;;;5020603;28;20052;-63
2023/08/02 10:07:14;;;;;;;6.38;3.35;;;22.30;93.70;;;;;;5023293;28;20073;-65
2023/08/02 10:09:39;;;;;;;6.40;3.30;;;22.30;94.10;;;;;;5027919;28;20045;-72
2023/08/02 10:12:10;;;;;;;6.00;3.40;;;22.10;92.90;;;;;;5030453;28;20127;-73
2023/08/02 10:14:36;;;;;;;8.30;3.35;;;22.20;94.20;;;;;;5029887;28;20071;-65
2023/08/02 10:17:02;;;;;;;7.30;3.50;;;22.20;94.30;;;;;;5030404;28;20499;-71
2023/08/02 10:19:29;;;;;;;10.98;3.78;;;22.20;94.20;;;;;;5022127;28;20045;-70
2023/08/02 10:21:58;;;;;;;7.97;3.55;;;22.20;94.70;;;;;;5021269;28;20121;-71
2023/08/02 10:24:28;;;;;;;7.78;3.65;;;22.30;94.20;;;;;;5015129;28;20450;-70
2023/08/02 10:26:55;;;;;;;7.78;3.40;;;22.10;94.10;;;;;;5045609;28;20048;-67
2023/08/02 10:29:21;;;;;;;6.45;3.17;;;22.30;94.20;;;;;;5041455;28;20037;-65
2023/08/02 10:31:46;;;;;;;6.65;3.35;;;21.20;92.80;;;;;;5021500;28;20056;-71
2023/08/02 10:34:34;;;;;;;7.82;3.15;;;22.30;93.50;;;;;;5030602;28;20037;-67
2023/08/02 10:37:00;;;;;;;7.32;3.20;;;22.30;94.40;;;;;;5031249;28;20091;-70
2023/08/02 10:39:58;;;;;;;7.47;3.42;;;22.30;94.40;;;;;;5025332;28;20053;-66
2023/08/02 10:42:29;;;;;;;8.73;3.55;;;22.50;93.60;;;;;;5033993;28;20057;-61
2023/08/02 10:44:55;;;;;;;6.20;3.22;;;22.20;93.50;;;;;;5021264;28;20096;-61
2023/08/02 10:47:34;;;;;;;6.55;3.58;;;22.20;94.50;;;;;;5029847;28;20511;-62
2023/08/02 10:50:02;;;;;;;6.57;3.42;;;22.20;93.10;;;;;;5010340;28;20038;-65
2023/08/02 10:52:35;;;;;;;6.28;3.15;;;22.20;94.60;;;;;;5028810;28;20123;-62
2023/08/02 10:55:14;;;;;;;6.80;3.20;;;22.30;94.50;;;;;;5030133;28;20534;-61
2023/08/02 10:58:08;;;;;;;5.93;3.00;;;22.20;94.50;;;;;;5010162;28;20144;-70
2023/08/02 11:00:37;;;;;;;7.15;3.67;;;22.30;94.50;;;;;;5036760;28;20042;-64
2023/08/02 11:03:03;;;;;;;6.28;3.20;;;22.30;94.70;;;;;;5010692;28;20045;-68
2023/08/02 11:05:42;;;;;;;6.57;3.13;;;22.40;94.60;;;;;;5029294;28;20037;-67
2023/08/02 11:08:08;;;;;;;4.85;2.80;;;22.50;93.20;;;;;;4994640;28;20087;-63
2023/08/02 11:10:55;;;;;;;5.47;3.03;;;22.20;94.60;;;;;;5027302;28;20488;-66
2023/08/02 11:13:22;;;;;;;6.07;2.83;;;22.30;94.60;;;;;;5024164;28;20045;-66
2023/08/02 11:16:02;;;;;;;6.07;2.60;;;22.30;94.80;;;;;;5028709;28;20045;-68
2023/08/02 11:18:33;;;;;;;5.00;2.60;;;22.20;93.90;;;;;;5014971;28;20066;-61
2023/08/02 11:21:08;;;;;;;5.18;2.65;;;22.20;94.70;;;;;;5008457;28;20045;-63
2023/08/02 11:23:34;;;;;;;12.27;3.42;;;22.40;94.80;;;;;;5004099;28;20095;-65
2023/08/02 11:26:10;;;;;;;18.08;3.90;;;22.20;93.60;;;;;;5008032;28;20438;-67
2023/08/02 11:28:49;;;;;;;16.65;3.70;;;22.40;94.90;;;;;;5008522;28;20053;-69
2023/08/02 11:31:15;;;;;;;13.60;3.30;;;22.30;93.80;;;;;;5010661;28;20058;-61
2023/08/02 11:33:41;;;;;;;12.30;3.22;;;22.60;95.30;;;;;;5013774;28;20042;-63
2023/08/02 11:36:08;;;;;;;9.05;3.40;;;22.40;95.30;;;;;;5015904;28;20108;-68
2023/08/02 11:38:36;;;;;;;8.50;3.03;;;22.60;93.80;;;;;;5013853;28;20049;-70
2023/08/02 11:41:02;;;;;;;9.20;3.45;;;;;;;;;;5009800;28;20049;-68
2023/08/02 11:43:38;;;;;;;12.75;3.40;;;22.50;95.00;;;;;;5012761;28;20487;-68
2023/08/02 11:46:24;;;;;;;7.00;2.75;;;22.50;95.30;;;;;;5009406;28;20057;-70
2023/08/02 11:48:50;;;;;;;5.50;2.60;;;22.40;93.60;;;;;;5005366;28;20435;-61
2023/08/02 11:51:18;;;;;;;7.13;3.15;;;22.20;93.90;;;;;;5007577;28;20108;-61
2023/08/02 11:53:52;;;;;;;13.20;3.08;;;22.20;95.40;;;;;;5031837;28;20483;-70
2023/08/02 11:56:19;;;;;;;8.15;2.97;;;22.50;93.60;;;;;;5032049;28;20054;-69
2023/08/02 11:58:45;;;;;;;8.48;2.38;;;22.20;94.00;;;;;;5034911;28;20073;-69
2023/08/02 12:01:12;;;;;;;6.80;2.50;;;22.30;95.20;;;;;;5031367;28;20048;-69
2023/08/02 12:03:38;;;;;;;5.32;2.40;;;22.50;95.10;;;;;;5028619;28;20064;-67
2023/08/02 12:06:04;;;;;;;5.60;2.38;;;22.50;95.10;;;;;;5030782;28;20494;-71
2023/08/02 12:08:30;;;;;;;5.78;2.50;;;22.40;95.00;;;;;;5049786;28;20049;-69
2023/08/02 12:10:56;;;;;;;6.65;2.47;;;22.60;95.10;;;;;;5029993;28;20030;-71
2023/08/02 12:13:22;;;;;;;6.13;2.30;;;22.40;93.90;;;;;;5058190;28;20495;-71
2023/08/02 12:15:58;;;;;;;5.57;2.20;;;22.60;94.10;;;;;;5033220;28;20033;-71
2023/08/02 12:18:24;;;;;;;5.90;2.25;;;22.50;95.50;;;;;;5033073;28;20046;-71
2023/08/02 12:20:50;;;;;;;6.47;2.40;;;22.40;94.00;;;;;;5030777;28;20106;-71
2023/08/02 12:23:35;;;;;;;4.65;2.28;;;22.30;95.10;;;;;;5031963;28;20071;-61
2023/08/02 12:26:01;;;;;;;4.80;2.13;;;22.40;93.90;;;;;;5049842;28;20052;-61
2023/08/02 12:28:44;;;;;;;4.38;2.33;;;22.60;95.10;;;;;;5016213;28;20049;-61
2023/08/02 12:31:10;;;;;;;9.63;2.53;;;22.70;95.40;;;;;;5027666;28;20045;-71
2023/08/02 12:33:37;;;;;;;5.85;2.20;;;22.50;95.10;;;;;;5016262;28;20483;-70
2023/08/02 12:36:03;;;;;;;3.83;2.00;;;22.80;95.20;;;;;;5031165;28;20049;-71
2023/08/02 12:38:30;;;;;;;4.07;1.80;;;22.70;95.40;;;;;;5023254;28;20395;-70
2023/08/02 12:41:01;;;;;;;4.97;2.22;;;22.70;95.10;;;;;;5032864;28;20053;-70
2023/08/02 12:43:28;;;;;;;4.43;1.80;;;22.60;94.10;;;;;;5034088;28;20061;-71
2023/08/02 12:45:54;;;;;;;4.90;2.00;;;22.80;95.00;;;;;;5030604;28;20061;-71
2023/08/02 12:48:20;;;;;;;6.13;1.80;;;22.70;93.60;;;;;;5034324;28;20376;-71